sensor_id;sensor_type;location;lat;lon;timestamp;P1;durP1;ratioP1;P2;durP2;ratioP2
2267;SDS011;11052;43.338;25.502;2023-12-14T00:02:13;2.27;;;1.63;;
2267;SDS011;11052;43.338;25.502;2023-12-14T00:04:40;3.27;;;0.80;;
2267;SDS011;11052;43.338;25.502;2023-12-14T00:07:09;1.00;;;0.90;;
2267;SDS011;11052;43.338;25.502;2023-12-14T00:09:39;1.10;;;1.00;;
2267;SDS011;11052;43.338;25.502;2023-12-14T00:12:07;2.40;;;1.30;;
2267;SDS011;11052;43.338;25.502;2023-12-14T00:14:34;1.10;;;1.00;;
2267;SDS011;11052;43.338;25.502;2023-12-14T00:17:02;0.80;;;0.60;;
2267;SDS011;11052;43.338;25.502;2023-12-14T00:19:29;2.50;;;0.67;;
2267;SDS011;11052;43.338;25.502;2023-12-14T00:21:56;1.97;;;1.67;;
2267;SDS011;11052;43.338;25.502;2023-12-14T00:24:25;1.03;;;0.93;;
2267;SDS011;11052;43.338;25.502;2023-12-14T00:26:52;1.67;;;1.00;;
2267;SDS011;11052;43.338;25.502;2023-12-14T00:29:19;2.27;;;2.10;;
2267;SDS011;11052;43.338;25.502;2023-12-14T00:31:47;0.90;;;0.70;;
2267;SDS011;11052;43.338;25.502;2023-12-14T00:34:14;1.13;;;0.80;;
2267;SDS011;11052;43.338;25.502;2023-12-14T00:36:41;0.80;;;0.67;;
2267;SDS011;11052;43.338;25.502;2023-12-14T00:39:08;2.13;;;0.83;;
2267;SDS011;11052;43.338;25.502;2023-12-14T00:41:37;1.60;;;1.33;;
2267;SDS011;11052;43.338;25.502;2023-12-14T00:44:05;0.93;;;0.80;;
2267;SDS011;11052;43.338;25.502;2023-12-14T00:46:32;1.40;;;1.20;;
2267;SDS011;11052;43.338;25.502;2023-12-14T00:48:59;0.90;;;0.70;;
2267;SDS011;11052;43.338;25.502;2023-12-14T00:51:27;2.03;;;1.13;;
2267;SDS011;11052;43.338;25.502;2023-12-14T00:53:54;4.93;;;0.80;;
2267;SDS011;11052;43.338;25.502;2023-12-14T00:56:21;0.80;;;0.70;;
2267;SDS011;11052;43.338;25.502;2023-12-14T00:58:50;0.80;;;0.60;;
2267;SDS011;11052;43.338;25.502;2023-12-14T01:01:17;1.17;;;1.07;;
2267;SDS011;11052;43.338;25.502;2023-12-14T01:03:45;0.80;;;0.60;;
2267;SDS011;11052;43.338;25.502;2023-12-14T01:06:12;0.97;;;0.63;;
2267;SDS011;11052;43.338;25.502;2023-12-14T01:08:39;1.97;;;1.87;;
2267;SDS011;11052;43.338;25.502;2023-12-14T01:11:07;1.10;;;1.00;;
2267;SDS011;11052;43.338;25.502;2023-12-14T01:13:34;0.80;;;0.60;;
2267;SDS011;11052;43.338;25.502;2023-12-14T01:16:03;0.97;;;0.87;;
2267;SDS011;11052;43.338;25.502;2023-12-14T01:18:31;1.20;;;0.90;;
2267;SDS011;11052;43.338;25.502;2023-12-14T01:20:58;0.80;;;0.60;;
2267;SDS011;11052;43.338;25.502;2023-12-14T01:23:25;0.80;;;0.70;;
2267;SDS011;11052;43.338;25.502;2023-12-14T01:25:53;0.80;;;0.50;;
2267;SDS011;11052;43.338;25.502;2023-12-14T01:28:20;0.80;;;0.60;;
2267;SDS011;11052;43.338;25.502;2023-12-14T01:30:47;1.03;;;0.93;;
2267;SDS011;11052;43.338;25.502;2023-12-14T01:33:16;1.10;;;1.00;;
2267;SDS011;11052;43.338;25.502;2023-12-14T01:35:45;1.03;;;0.93;;
2267;SDS011;11052;43.338;25.502;2023-12-14T01:38:12;0.90;;;0.80;;
2267;SDS011;11052;43.338;25.502;2023-12-14T01:40:39;0.80;;;0.70;;
2267;SDS011;11052;43.338;25.502;2023-12-14T01:43:07;0.83;;;0.63;;
2267;SDS011;11052;43.338;25.502;2023-12-14T01:45:36;0.90;;;0.70;;
2267;SDS011;11052;43.338;25.502;2023-12-14T01:48:03;0.80;;;0.70;;
2267;SDS011;11052;43.338;25.502;2023-12-14T01:50:32;0.87;;;0.80;;
2267;SDS011;11052;43.338;25.502;2023-12-14T01:52:59;0.80;;;0.60;;
2267;SDS011;11052;43.338;25.502;2023-12-14T01:55:27;1.00;;;0.77;;
2267;SDS011;11052;43.338;25.502;2023-12-14T01:57:54;0.93;;;0.83;;
2267;SDS011;11052;43.338;25.502;2023-12-14T02:00:27;1.30;;;0.93;;
2267;SDS011;11052;43.338;25.502;2023-12-14T02:03:01;1.30;;;0.90;;
2267;SDS011;11052;43.338;25.502;2023-12-14T02:05:29;0.80;;;0.60;;
2267;SDS011;11052;43.338;25.502;2023-12-14T02:07:58;0.97;;;0.77;;
2267;SDS011;11052;43.338;25.502;2023-12-14T02:10:25;1.30;;;1.00;;
2267;SDS011;11052;43.338;25.502;2023-12-14T02:12:52;1.20;;;0.83;;
2267;SDS011;11052;43.338;25.502;2023-12-14T02:15:20;1.00;;;0.60;;
2267;SDS011;11052;43.338;25.502;2023-12-14T02:17:47;1.20;;;1.00;;
2267;SDS011;11052;43.338;25.502;2023-12-14T02:20:14;0.80;;;0.60;;
2267;SDS011;11052;43.338;25.502;2023-12-14T02:22:49;0.80;;;0.60;;
2267;SDS011;11052;43.338;25.502;2023-12-14T02:25:17;0.80;;;0.70;;
2267;SDS011;11052;43.338;25.502;2023-12-14T02:27:44;0.87;;;0.70;;
2267;SDS011;11052;43.338;25.502;2023-12-14T02:30:13;0.90;;;0.80;;
2267;SDS011;11052;43.338;25.502;2023-12-14T02:32:40;0.83;;;0.63;;
2267;SDS011;11052;43.338;25.502;2023-12-14T02:35:08;1.97;;;0.80;;
2267;SDS011;11052;43.338;25.502;2023-12-14T02:37:35;0.80;;;0.60;;
2267;SDS011;11052;43.338;25.502;2023-12-14T02:40:07;1.20;;;1.07;;
2267;SDS011;11052;43.338;25.502;2023-12-14T02:42:35;1.33;;;1.23;;
2267;SDS011;11052;43.338;25.502;2023-12-14T02:45:03;0.93;;;0.80;;
2267;SDS011;11052;43.338;25.502;2023-12-14T02:47:31;1.00;;;0.70;;
2267;SDS011;11052;43.338;25.502;2023-12-14T02:49:58;0.90;;;0.60;;
2267;SDS011;11052;43.338;25.502;2023-12-14T02:52:25;0.83;;;0.70;;
2267;SDS011;11052;43.338;25.502;2023-12-14T02:54:53;0.80;;;0.70;;
2267;SDS011;11052;43.338;25.502;2023-12-14T02:57:21;2.13;;;1.70;;
2267;SDS011;11052;43.338;25.502;2023-12-14T02:59:49;0.80;;;0.70;;
2267;SDS011;11052;43.338;25.502;2023-12-14T03:02:16;0.80;;;0.60;;
2267;SDS011;11052;43.338;25.502;2023-12-14T03:04:43;1.00;;;0.80;;
2267;SDS011;11052;43.338;25.502;2023-12-14T03:07:10;1.10;;;0.70;;
2267;SDS011;11052;43.338;25.502;2023-12-14T03:09:39;1.20;;;0.60;;
2267;SDS011;11052;43.338;25.502;2023-12-14T03:12:09;0.90;;;0.80;;
2267;SDS011;11052;43.338;25.502;2023-12-14T03:14:38;1.10;;;0.97;;
2267;SDS011;11052;43.338;25.502;2023-12-14T03:17:06;1.77;;;1.13;;
2267;SDS011;11052;43.338;25.502;2023-12-14T03:19:38;1.70;;;1.43;;
2267;SDS011;11052;43.338;25.502;2023-12-14T03:22:06;1.57;;;1.30;;
2267;SDS011;11052;43.338;25.502;2023-12-14T03:24:34;3.13;;;1.00;;
2267;SDS011;11052;43.338;25.502;2023-12-14T03:27:02;1.07;;;0.80;;
2267;SDS011;11052;43.338;25.502;2023-12-14T03:29:30;0.80;;;0.50;;
2267;SDS011;11052;43.338;25.502;2023-12-14T03:31:59;0.80;;;0.60;;
2267;SDS011;11052;43.338;25.502;2023-12-14T03:34:27;1.27;;;0.70;;
2267;SDS011;11052;43.338;25.502;2023-12-14T03:36:54;2.20;;;0.97;;
2267;SDS011;11052;43.338;25.502;2023-12-14T03:39:21;0.80;;;0.60;;
2267;SDS011;11052;43.338;25.502;2023-12-14T03:41:49;0.90;;;0.77;;
2267;SDS011;11052;43.338;25.502;2023-12-14T03:44:16;1.00;;;0.80;;
2267;SDS011;11052;43.338;25.502;2023-12-14T03:46:43;0.90;;;0.70;;
2267;SDS011;11052;43.338;25.502;2023-12-14T03:49:12;0.80;;;0.70;;
2267;SDS011;11052;43.338;25.502;2023-12-14T03:51:42;0.80;;;0.67;;
2267;SDS011;11052;43.338;25.502;2023-12-14T03:54:10;0.80;;;0.63;;
2267;SDS011;11052;43.338;25.502;2023-12-14T03:56:37;1.27;;;0.70;;
2267;SDS011;11052;43.338;25.502;2023-12-14T03:59:04;0.80;;;0.60;;
2267;SDS011;11052;43.338;25.502;2023-12-14T04:01:31;0.83;;;0.67;;
2267;SDS011;11052;43.338;25.502;2023-12-14T04:03:59;0.90;;;0.70;;
2267;SDS011;11052;43.338;25.502;2023-12-14T04:06:27;0.80;;;0.60;;
2267;SDS011;11052;43.338;25.502;2023-12-14T04:08:55;1.00;;;0.90;;
2267;SDS011;11052;43.338;25.502;2023-12-14T04:11:22;1.63;;;0.90;;
2267;SDS011;11052;43.338;25.502;2023-12-14T04:13:49;0.80;;;0.60;;
2267;SDS011;11052;43.338;25.502;2023-12-14T04:16:19;1.00;;;0.80;;
2267;SDS011;11052;43.338;25.502;2023-12-14T04:18:47;0.90;;;0.70;;
2267;SDS011;11052;43.338;25.502;2023-12-14T04:21:14;1.87;;;0.90;;
2267;SDS011;11052;43.338;25.502;2023-12-14T04:23:43;0.93;;;0.80;;
2267;SDS011;11052;43.338;25.502;2023-12-14T04:26:11;0.80;;;0.60;;
2267;SDS011;11052;43.338;25.502;2023-12-14T04:28:39;0.80;;;0.60;;
2267;SDS011;11052;43.338;25.502;2023-12-14T04:31:09;0.90;;;0.60;;
2267;SDS011;11052;43.338;25.502;2023-12-14T04:33:37;0.80;;;0.70;;
2267;SDS011;11052;43.338;25.502;2023-12-14T04:36:04;0.80;;;0.60;;
2267;SDS011;11052;43.338;25.502;2023-12-14T04:38:33;0.90;;;0.60;;
2267;SDS011;11052;43.338;25.502;2023-12-14T04:41:02;0.90;;;0.80;;
2267;SDS011;11052;43.338;25.502;2023-12-14T04:43:30;0.80;;;0.60;;
2267;SDS011;11052;43.338;25.502;2023-12-14T04:45:57;1.00;;;0.90;;
2267;SDS011;11052;43.338;25.502;2023-12-14T04:48:24;0.80;;;0.57;;
2267;SDS011;11052;43.338;25.502;2023-12-14T04:50:52;0.80;;;0.70;;
2267;SDS011;11052;43.338;25.502;2023-12-14T04:53:19;2.40;;;1.10;;
2267;SDS011;11052;43.338;25.502;2023-12-14T04:55:46;0.80;;;0.70;;
2267;SDS011;11052;43.338;25.502;2023-12-14T04:58:15;0.90;;;0.60;;
2267;SDS011;11052;43.338;25.502;2023-12-14T05:00:42;0.90;;;0.70;;
2267;SDS011;11052;43.338;25.502;2023-12-14T05:03:09;3.00;;;0.93;;
2267;SDS011;11052;43.338;25.502;2023-12-14T05:05:37;0.80;;;0.60;;
2267;SDS011;11052;43.338;25.502;2023-12-14T05:08:04;0.80;;;0.50;;
2267;SDS011;11052;43.338;25.502;2023-12-14T05:10:31;0.80;;;0.60;;
2267;SDS011;11052;43.338;25.502;2023-12-14T05:12:59;0.90;;;0.70;;
2267;SDS011;11052;43.338;25.502;2023-12-14T05:15:27;2.40;;;0.90;;
2267;SDS011;11052;43.338;25.502;2023-12-14T05:17:55;1.50;;;0.80;;
2267;SDS011;11052;43.338;25.502;2023-12-14T05:20:23;1.00;;;0.80;;
2267;SDS011;11052;43.338;25.502;2023-12-14T05:22:50;0.90;;;0.70;;
2267;SDS011;11052;43.338;25.502;2023-12-14T05:25:17;0.80;;;0.60;;
2267;SDS011;11052;43.338;25.502;2023-12-14T05:27:45;0.80;;;0.60;;
2267;SDS011;11052;43.338;25.502;2023-12-14T05:30:12;0.80;;;0.60;;
2267;SDS011;11052;43.338;25.502;2023-12-14T05:32:41;0.80;;;0.60;;
2267;SDS011;11052;43.338;25.502;2023-12-14T05:35:08;1.13;;;0.97;;
2267;SDS011;11052;43.338;25.502;2023-12-14T05:37:38;0.97;;;0.63;;
2267;SDS011;11052;43.338;25.502;2023-12-14T05:40:06;0.80;;;0.50;;
2267;SDS011;11052;43.338;25.502;2023-12-14T05:42:34;0.80;;;0.60;;
2267;SDS011;11052;43.338;25.502;2023-12-14T05:45:02;1.10;;;0.70;;
2267;SDS011;11052;43.338;25.502;2023-12-14T05:47:30;0.80;;;0.70;;
2267;SDS011;11052;43.338;25.502;2023-12-14T05:50:00;0.80;;;0.60;;
2267;SDS011;11052;43.338;25.502;2023-12-14T05:52:28;0.90;;;0.50;;
2267;SDS011;11052;43.338;25.502;2023-12-14T05:54:55;5.20;;;0.73;;
2267;SDS011;11052;43.338;25.502;2023-12-14T05:57:23;0.80;;;0.60;;
2267;SDS011;11052;43.338;25.502;2023-12-14T05:59:51;0.87;;;0.73;;
2267;SDS011;11052;43.338;25.502;2023-12-14T06:02:18;0.90;;;0.77;;
2267;SDS011;11052;43.338;25.502;2023-12-14T06:04:45;0.80;;;0.70;;
2267;SDS011;11052;43.338;25.502;2023-12-14T06:07:15;0.80;;;0.50;;
2267;SDS011;11052;43.338;25.502;2023-12-14T06:09:42;1.07;;;0.70;;
2267;SDS011;11052;43.338;25.502;2023-12-14T06:12:10;0.93;;;0.80;;
2267;SDS011;11052;43.338;25.502;2023-12-14T06:14:38;1.10;;;0.90;;
2267;SDS011;11052;43.338;25.502;2023-12-14T06:17:06;1.00;;;0.60;;
2267;SDS011;11052;43.338;25.502;2023-12-14T06:19:33;0.80;;;0.60;;
2267;SDS011;11052;43.338;25.502;2023-12-14T06:22:00;0.80;;;0.60;;
2267;SDS011;11052;43.338;25.502;2023-12-14T06:24:29;0.80;;;0.60;;
2267;SDS011;11052;43.338;25.502;2023-12-14T06:26:56;0.80;;;0.63;;
2267;SDS011;11052;43.338;25.502;2023-12-14T06:29:23;1.03;;;0.90;;
2267;SDS011;11052;43.338;25.502;2023-12-14T06:31:51;0.80;;;0.50;;
2267;SDS011;11052;43.338;25.502;2023-12-14T06:34:18;0.80;;;0.70;;
2267;SDS011;11052;43.338;25.502;2023-12-14T06:36:45;1.03;;;0.93;;
2267;SDS011;11052;43.338;25.502;2023-12-14T06:39:13;0.90;;;0.60;;
2267;SDS011;11052;43.338;25.502;2023-12-14T06:41:42;1.80;;;1.17;;
2267;SDS011;11052;43.338;25.502;2023-12-14T06:44:09;0.83;;;0.70;;
2267;SDS011;11052;43.338;25.502;2023-12-14T06:46:36;1.53;;;1.10;;
2267;SDS011;11052;43.338;25.502;2023-12-14T06:49:03;1.03;;;0.93;;
2267;SDS011;11052;43.338;25.502;2023-12-14T06:51:31;1.87;;;0.93;;
2267;SDS011;11052;43.338;25.502;2023-12-14T06:53:58;1.33;;;1.23;;
2267;SDS011;11052;43.338;25.502;2023-12-14T06:56:25;6.50;;;1.57;;
2267;SDS011;11052;43.338;25.502;2023-12-14T06:58:54;1.97;;;1.43;;
2267;SDS011;11052;43.338;25.502;2023-12-14T07:01:21;1.70;;;1.17;;
2267;SDS011;11052;43.338;25.502;2023-12-14T07:03:48;1.87;;;1.00;;
2267;SDS011;11052;43.338;25.502;2023-12-14T07:06:16;1.57;;;1.47;;
2267;SDS011;11052;43.338;25.502;2023-12-14T07:08:44;1.77;;;1.60;;
2267;SDS011;11052;43.338;25.502;2023-12-14T07:11:12;2.20;;;1.60;;
2267;SDS011;11052;43.338;25.502;2023-12-14T07:13:40;1.00;;;0.70;;
2267;SDS011;11052;43.338;25.502;2023-12-14T07:16:09;1.40;;;1.30;;
2267;SDS011;11052;43.338;25.502;2023-12-14T07:18:37;2.13;;;1.80;;
2267;SDS011;11052;43.338;25.502;2023-12-14T07:21:05;1.97;;;0.80;;
2267;SDS011;11052;43.338;25.502;2023-12-14T07:23:33;1.17;;;0.70;;
2267;SDS011;11052;43.338;25.502;2023-12-14T07:26:01;1.03;;;0.93;;
2267;SDS011;11052;43.338;25.502;2023-12-14T07:28:29;0.80;;;0.70;;
2267;SDS011;11052;43.338;25.502;2023-12-14T07:30:56;2.50;;;1.50;;
2267;SDS011;11052;43.338;25.502;2023-12-14T07:33:25;0.80;;;0.70;;
2267;SDS011;11052;43.338;25.502;2023-12-14T07:35:53;0.80;;;0.77;;
2267;SDS011;11052;43.338;25.502;2023-12-14T07:38:20;1.73;;;1.63;;
2267;SDS011;11052;43.338;25.502;2023-12-14T07:40:47;1.60;;;1.50;;
2267;SDS011;11052;43.338;25.502;2023-12-14T07:43:15;1.03;;;0.93;;
2267;SDS011;11052;43.338;25.502;2023-12-14T07:45:43;1.13;;;1.03;;
2267;SDS011;11052;43.338;25.502;2023-12-14T07:48:11;1.23;;;1.10;;
2267;SDS011;11052;43.338;25.502;2023-12-14T07:50:39;1.00;;;0.80;;
2267;SDS011;11052;43.338;25.502;2023-12-14T07:53:07;3.00;;;1.13;;
2267;SDS011;11052;43.338;25.502;2023-12-14T07:55:34;1.43;;;1.30;;
2267;SDS011;11052;43.338;25.502;2023-12-14T07:58:01;1.30;;;1.20;;
2267;SDS011;11052;43.338;25.502;2023-12-14T08:00:28;1.60;;;1.50;;
2267;SDS011;11052;43.338;25.502;2023-12-14T08:02:56;1.63;;;1.53;;
2267;SDS011;11052;43.338;25.502;2023-12-14T08:05:23;2.00;;;1.70;;
2267;SDS011;11052;43.338;25.502;2023-12-14T08:07:52;1.90;;;1.53;;
2267;SDS011;11052;43.338;25.502;2023-12-14T08:10:19;1.57;;;1.10;;
2267;SDS011;11052;43.338;25.502;2023-12-14T08:12:46;2.57;;;1.77;;
2267;SDS011;11052;43.338;25.502;2023-12-14T08:15:13;1.60;;;1.20;;
2267;SDS011;11052;43.338;25.502;2023-12-14T08:17:41;0.80;;;0.70;;
2267;SDS011;11052;43.338;25.502;2023-12-14T08:20:09;2.20;;;1.43;;
2267;SDS011;11052;43.338;25.502;2023-12-14T08:22:38;3.03;;;2.83;;
2267;SDS011;11052;43.338;25.502;2023-12-14T08:25:12;2.03;;;1.83;;
2267;SDS011;11052;43.338;25.502;2023-12-14T08:27:40;3.03;;;1.87;;
2267;SDS011;11052;43.338;25.502;2023-12-14T08:30:09;1.93;;;1.70;;
2267;SDS011;11052;43.338;25.502;2023-12-14T08:32:37;2.50;;;1.83;;
2267;SDS011;11052;43.338;25.502;2023-12-14T08:35:05;0.97;;;0.87;;
2267;SDS011;11052;43.338;25.502;2023-12-14T08:37:33;5.17;;;1.67;;
2267;SDS011;11052;43.338;25.502;2023-12-14T08:40:01;1.63;;;1.53;;
2267;SDS011;11052;43.338;25.502;2023-12-14T08:42:31;1.30;;;1.03;;
2267;SDS011;11052;43.338;25.502;2023-12-14T08:44:58;4.13;;;2.50;;
2267;SDS011;11052;43.338;25.502;2023-12-14T08:47:25;3.03;;;1.40;;
2267;SDS011;11052;43.338;25.502;2023-12-14T08:49:52;0.80;;;0.60;;
2267;SDS011;11052;43.338;25.502;2023-12-14T08:52:20;4.40;;;1.70;;
2267;SDS011;11052;43.338;25.502;2023-12-14T08:54:47;1.17;;;1.07;;
2267;SDS011;11052;43.338;25.502;2023-12-14T08:57:14;1.57;;;1.47;;
2267;SDS011;11052;43.338;25.502;2023-12-14T08:59:43;4.77;;;4.27;;
2267;SDS011;11052;43.338;25.502;2023-12-14T09:02:10;2.00;;;1.70;;
2267;SDS011;11052;43.338;25.502;2023-12-14T09:04:37;2.30;;;1.63;;
2267;SDS011;11052;43.338;25.502;2023-12-14T09:07:05;4.20;;;1.20;;
2267;SDS011;11052;43.338;25.502;2023-12-14T09:09:32;1.20;;;1.10;;
2267;SDS011;11052;43.338;25.502;2023-12-14T09:11:59;3.00;;;2.60;;
2267;SDS011;11052;43.338;25.502;2023-12-14T09:14:27;3.20;;;1.93;;
2267;SDS011;11052;43.338;25.502;2023-12-14T09:16:56;1.20;;;1.03;;
2267;SDS011;11052;43.338;25.502;2023-12-14T09:19:23;4.20;;;0.77;;
2267;SDS011;11052;43.338;25.502;2023-12-14T09:21:51;1.30;;;1.20;;
2267;SDS011;11052;43.338;25.502;2023-12-14T09:24:18;2.03;;;1.80;;
2267;SDS011;11052;43.338;25.502;2023-12-14T09:26:45;2.13;;;1.23;;
2267;SDS011;11052;43.338;25.502;2023-12-14T09:29:12;5.73;;;2.20;;
2267;SDS011;11052;43.338;25.502;2023-12-14T09:31:41;2.23;;;2.07;;
2267;SDS011;11052;43.338;25.502;2023-12-14T09:34:10;3.40;;;3.20;;
2267;SDS011;11052;43.338;25.502;2023-12-14T09:36:38;7.70;;;2.93;;
2267;SDS011;11052;43.338;25.502;2023-12-14T09:39:05;2.87;;;2.40;;
2267;SDS011;11052;43.338;25.502;2023-12-14T09:41:35;3.50;;;2.47;;
2267;SDS011;11052;43.338;25.502;2023-12-14T09:44:03;3.23;;;2.43;;
2267;SDS011;11052;43.338;25.502;2023-12-14T09:46:32;2.80;;;1.90;;
2267;SDS011;11052;43.338;25.502;2023-12-14T09:49:03;1.77;;;1.67;;
2267;SDS011;11052;43.338;25.502;2023-12-14T09:51:32;2.10;;;1.90;;
2267;SDS011;11052;43.338;25.502;2023-12-14T09:53:59;2.77;;;2.07;;
2267;SDS011;11052;43.338;25.502;2023-12-14T09:56:26;3.47;;;1.73;;
2267;SDS011;11052;43.338;25.502;2023-12-14T09:58:54;4.10;;;2.37;;
2267;SDS011;11052;43.338;25.502;2023-12-14T10:01:22;2.47;;;2.03;;
2267;SDS011;11052;43.338;25.502;2023-12-14T10:03:50;2.10;;;1.10;;
2267;SDS011;11052;43.338;25.502;2023-12-14T10:06:35;1.53;;;1.17;;
2267;SDS011;11052;43.338;25.502;2023-12-14T10:09:02;2.60;;;2.03;;
2267;SDS011;11052;43.338;25.502;2023-12-14T10:11:32;0.97;;;0.77;;
2267;SDS011;11052;43.338;25.502;2023-12-14T10:13:59;2.20;;;1.90;;
2267;SDS011;11052;43.338;25.502;2023-12-14T10:16:27;1.90;;;1.17;;
2267;SDS011;11052;43.338;25.502;2023-12-14T10:18:55;6.73;;;2.90;;
2267;SDS011;11052;43.338;25.502;2023-12-14T10:21:23;3.33;;;2.17;;
2267;SDS011;11052;43.338;25.502;2023-12-14T10:23:53;2.30;;;1.60;;
2267;SDS011;11052;43.338;25.502;2023-12-14T10:26:22;2.10;;;1.37;;
2267;SDS011;11052;43.338;25.502;2023-12-14T10:28:51;2.90;;;2.33;;
2267;SDS011;11052;43.338;25.502;2023-12-14T10:31:19;2.33;;;1.90;;
2267;SDS011;11052;43.338;25.502;2023-12-14T10:33:46;5.50;;;3.90;;
2267;SDS011;11052;43.338;25.502;2023-12-14T10:36:15;2.40;;;2.30;;
2267;SDS011;11052;43.338;25.502;2023-12-14T10:38:45;4.27;;;2.27;;
2267;SDS011;11052;43.338;25.502;2023-12-14T10:41:16;5.13;;;2.70;;
2267;SDS011;11052;43.338;25.502;2023-12-14T10:43:44;3.63;;;2.20;;
2267;SDS011;11052;43.338;25.502;2023-12-14T10:46:13;3.37;;;2.10;;
2267;SDS011;11052;43.338;25.502;2023-12-14T10:48:41;3.53;;;2.80;;
2267;SDS011;11052;43.338;25.502;2023-12-14T10:51:11;2.00;;;1.67;;
2267;SDS011;11052;43.338;25.502;2023-12-14T10:53:39;1.73;;;1.53;;
2267;SDS011;11052;43.338;25.502;2023-12-14T10:56:10;4.30;;;3.70;;
2267;SDS011;11052;43.338;25.502;2023-12-14T10:58:50;3.43;;;2.30;;
2267;SDS011;11052;43.338;25.502;2023-12-14T11:01:19;3.53;;;1.90;;
2267;SDS011;11052;43.338;25.502;2023-12-14T11:03:49;1.93;;;1.63;;
2267;SDS011;11052;43.338;25.502;2023-12-14T11:06:21;4.73;;;3.00;;
2267;SDS011;11052;43.338;25.502;2023-12-14T11:08:56;2.87;;;2.63;;
2267;SDS011;11052;43.338;25.502;2023-12-14T11:11:27;3.60;;;2.40;;
2267;SDS011;11052;43.338;25.502;2023-12-14T11:13:56;4.33;;;2.93;;
2267;SDS011;11052;43.338;25.502;2023-12-14T11:16:25;3.17;;;2.63;;
2267;SDS011;11052;43.338;25.502;2023-12-14T11:21:56;6.10;;;1.63;;
2267;SDS011;11052;43.338;25.502;2023-12-14T11:24:38;3.33;;;2.00;;
2267;SDS011;11052;43.338;25.502;2023-12-14T11:27:09;4.90;;;2.63;;
2267;SDS011;11052;43.338;25.502;2023-12-14T11:29:37;7.27;;;2.13;;
2267;SDS011;11052;43.338;25.502;2023-12-14T11:32:07;12.77;;;4.17;;
2267;SDS011;11052;43.338;25.502;2023-12-14T11:34:34;7.60;;;3.07;;
2267;SDS011;11052;43.338;25.502;2023-12-14T11:37:02;1.80;;;1.27;;
2267;SDS011;11052;43.338;25.502;2023-12-14T11:39:31;3.80;;;3.37;;
2267;SDS011;11052;43.338;25.502;2023-12-14T11:41:59;3.17;;;2.97;;
2267;SDS011;11052;43.338;25.502;2023-12-14T11:44:27;2.00;;;1.57;;
2267;SDS011;11052;43.338;25.502;2023-12-14T11:46:56;3.90;;;2.27;;
2267;SDS011;11052;43.338;25.502;2023-12-14T11:49:24;3.27;;;2.83;;
2267;SDS011;11052;43.338;25.502;2023-12-14T11:51:52;5.30;;;2.50;;
2267;SDS011;11052;43.338;25.502;2023-12-14T11:54:21;8.57;;;3.80;;
2267;SDS011;11052;43.338;25.502;2023-12-14T11:56:48;5.80;;;3.20;;
2267;SDS011;11052;43.338;25.502;2023-12-14T11:59:16;4.33;;;3.90;;
2267;SDS011;11052;43.338;25.502;2023-12-14T12:01:54;4.37;;;2.27;;
2267;SDS011;11052;43.338;25.502;2023-12-14T12:04:23;2.40;;;2.00;;
2267;SDS011;11052;43.338;25.502;2023-12-14T12:06:58;1.97;;;1.40;;
2267;SDS011;11052;43.338;25.502;2023-12-14T12:09:35;1.57;;;1.20;;
2267;SDS011;11052;43.338;25.502;2023-12-14T12:12:07;5.07;;;2.67;;
2267;SDS011;11052;43.338;25.502;2023-12-14T12:14:35;2.40;;;2.20;;
2267;SDS011;11052;43.338;25.502;2023-12-14T12:17:05;6.33;;;3.50;;
2267;SDS011;11052;43.338;25.502;2023-12-14T12:19:33;3.07;;;2.60;;
2267;SDS011;11052;43.338;25.502;2023-12-14T12:22:01;4.13;;;2.83;;
2267;SDS011;11052;43.338;25.502;2023-12-14T12:24:28;1.60;;;1.50;;
2267;SDS011;11052;43.338;25.502;2023-12-14T12:26:56;2.37;;;1.97;;
2267;SDS011;11052;43.338;25.502;2023-12-14T12:29:23;5.10;;;2.10;;
2267;SDS011;11052;43.338;25.502;2023-12-14T12:31:50;5.70;;;2.50;;
2267;SDS011;11052;43.338;25.502;2023-12-14T12:34:19;4.83;;;4.43;;
2267;SDS011;11052;43.338;25.502;2023-12-14T12:36:47;7.40;;;3.43;;
2267;SDS011;11052;43.338;25.502;2023-12-14T12:39:14;14.97;;;3.80;;
2267;SDS011;11052;43.338;25.502;2023-12-14T12:41:42;3.33;;;1.20;;
2267;SDS011;11052;43.338;25.502;2023-12-14T12:44:09;8.70;;;5.87;;
2267;SDS011;11052;43.338;25.502;2023-12-14T12:46:36;16.20;;;6.83;;
2267;SDS011;11052;43.338;25.502;2023-12-14T12:49:04;4.03;;;2.87;;
2267;SDS011;11052;43.338;25.502;2023-12-14T12:51:33;3.33;;;2.47;;
2267;SDS011;11052;43.338;25.502;2023-12-14T12:54:00;5.33;;;2.10;;
2267;SDS011;11052;43.338;25.502;2023-12-14T12:56:29;2.50;;;1.90;;
2267;SDS011;11052;43.338;25.502;2023-12-14T12:58:56;1.67;;;1.30;;
2267;SDS011;11052;43.338;25.502;2023-12-14T13:01:23;2.47;;;2.03;;
2267;SDS011;11052;43.338;25.502;2023-12-14T13:03:54;4.40;;;2.17;;
2267;SDS011;11052;43.338;25.502;2023-12-14T13:06:23;1.10;;;1.00;;
2267;SDS011;11052;43.338;25.502;2023-12-14T13:08:52;3.93;;;1.97;;
2267;SDS011;11052;43.338;25.502;2023-12-14T13:11:19;1.90;;;0.80;;
2267;SDS011;11052;43.338;25.502;2023-12-14T13:13:47;4.00;;;2.00;;
2267;SDS011;11052;43.338;25.502;2023-12-14T13:16:15;1.30;;;1.17;;
2267;SDS011;11052;43.338;25.502;2023-12-14T13:18:42;1.67;;;1.20;;
2267;SDS011;11052;43.338;25.502;2023-12-14T13:21:11;3.93;;;1.37;;
2267;SDS011;11052;43.338;25.502;2023-12-14T13:23:38;1.17;;;0.90;;
2267;SDS011;11052;43.338;25.502;2023-12-14T13:26:07;1.87;;;1.77;;
2267;SDS011;11052;43.338;25.502;2023-12-14T13:28:34;3.73;;;3.07;;
2267;SDS011;11052;43.338;25.502;2023-12-14T13:31:02;6.60;;;3.50;;
2267;SDS011;11052;43.338;25.502;2023-12-14T13:33:29;16.20;;;5.20;;
2267;SDS011;11052;43.338;25.502;2023-12-14T13:35:57;11.97;;;7.70;;
2267;SDS011;11052;43.338;25.502;2023-12-14T13:38:24;8.27;;;5.40;;
2267;SDS011;11052;43.338;25.502;2023-12-14T13:40:51;5.80;;;5.20;;
2267;SDS011;11052;43.338;25.502;2023-12-14T13:43:20;12.40;;;4.77;;
2267;SDS011;11052;43.338;25.502;2023-12-14T13:45:47;6.20;;;4.37;;
2267;SDS011;11052;43.338;25.502;2023-12-14T13:48:20;3.90;;;2.23;;
2267;SDS011;11052;43.338;25.502;2023-12-14T13:50:48;8.90;;;2.30;;
2267;SDS011;11052;43.338;25.502;2023-12-14T13:53:15;3.93;;;2.00;;
2267;SDS011;11052;43.338;25.502;2023-12-14T13:55:42;4.00;;;1.73;;
2267;SDS011;11052;43.338;25.502;2023-12-14T13:58:10;2.80;;;1.53;;
2267;SDS011;11052;43.338;25.502;2023-12-14T14:00:39;3.47;;;1.57;;
2267;SDS011;11052;43.338;25.502;2023-12-14T14:03:06;3.00;;;2.30;;
2267;SDS011;11052;43.338;25.502;2023-12-14T14:05:33;3.60;;;2.43;;
2267;SDS011;11052;43.338;25.502;2023-12-14T14:08:01;0.90;;;0.77;;
2267;SDS011;11052;43.338;25.502;2023-12-14T14:10:29;6.93;;;2.80;;
2267;SDS011;11052;43.338;25.502;2023-12-14T14:12:56;2.20;;;2.00;;
2267;SDS011;11052;43.338;25.502;2023-12-14T14:15:25;2.03;;;1.60;;
2267;SDS011;11052;43.338;25.502;2023-12-14T14:17:53;10.53;;;2.97;;
2267;SDS011;11052;43.338;25.502;2023-12-14T14:20:21;1.97;;;1.67;;
2267;SDS011;11052;43.338;25.502;2023-12-14T14:22:49;3.37;;;2.17;;
2267;SDS011;11052;43.338;25.502;2023-12-14T14:25:17;4.87;;;2.17;;
2267;SDS011;11052;43.338;25.502;2023-12-14T14:27:44;4.87;;;3.00;;
2267;SDS011;11052;43.338;25.502;2023-12-14T14:30:14;4.40;;;3.17;;
2267;SDS011;11052;43.338;25.502;2023-12-14T14:32:42;2.63;;;2.23;;
2267;SDS011;11052;43.338;25.502;2023-12-14T14:35:12;1.80;;;1.70;;
2267;SDS011;11052;43.338;25.502;2023-12-14T14:37:39;3.73;;;1.67;;
2267;SDS011;11052;43.338;25.502;2023-12-14T14:40:10;3.83;;;2.50;;
2267;SDS011;11052;43.338;25.502;2023-12-14T14:42:38;2.20;;;2.00;;
2267;SDS011;11052;43.338;25.502;2023-12-14T14:45:06;1.90;;;1.40;;
2267;SDS011;11052;43.338;25.502;2023-12-14T14:47:34;2.83;;;2.20;;
2267;SDS011;11052;43.338;25.502;2023-12-14T14:50:02;2.47;;;1.80;;
2267;SDS011;11052;43.338;25.502;2023-12-14T14:52:33;2.60;;;2.40;;
2267;SDS011;11052;43.338;25.502;2023-12-14T14:55:01;5.20;;;3.67;;
2267;SDS011;11052;43.338;25.502;2023-12-14T14:57:28;2.20;;;1.87;;